Time;durP1;ratioP1;P1;durP2;ratioP2;P2;SDS_P1;SDS_P2;PMS_P1;PMS_P2;Temp;Humidity;BMP_temperature;BMP_pressure;BME280_temperature;BME280_humidity;BME280_pressure;Samples;Min_cycle;Max_cycle;Signal;HPM_P1;HPM_P2
2022/11/28 00:00:57;;;;;;;10.07;6.97;;;2.90;91.60;;;;;;4955899;29;20204;-66
2022/11/28 00:03:25;;;;;;;8.40;7.10;;;2.90;91.70;;;;;;4956056;29;20209;-66
2022/11/28 00:05:52;;;;;;;13.32;8.43;;;2.90;91.60;;;;;;4954507;29;20225;-65
2022/11/28 00:08:19;;;;;;;10.27;8.10;;;3.00;91.70;;;;;;4956384;29;20288;-66
2022/11/28 00:10:48;;;;;;;11.15;8.35;;;2.90;91.80;;;;;;4954889;29;20261;-66
2022/11/28 00:13:15;;;;;;;15.75;8.73;;;2.90;91.90;;;;;;4956322;29;20300;-66
2022/11/28 00:15:42;;;;;;;12.98;9.55;;;2.80;92.10;;;;;;4955119;29;20293;-66
2022/11/28 00:18:10;;;;;;;12.88;9.07;;;2.80;92.10;;;;;;4954773;29;20194;-66
2022/11/28 00:20:37;;;;;;;12.60;10.05;;;2.80;92.20;;;;;;4955163;28;20198;-66
2022/11/28 00:23:04;;;;;;;13.88;9.00;;;2.80;92.40;;;;;;4954847;29;20190;-66
2022/11/28 00:25:31;;;;;;;13.25;8.98;;;2.80;92.60;;;;;;4955955;29;20718;-66
2022/11/28 00:28:01;;;;;;;12.02;9.48;;;2.80;92.40;;;;;;4955132;29;20264;-66
2022/11/28 00:30:29;;;;;;;16.60;10.13;;;2.80;92.50;;;;;;4956360;29;20189;-65
2022/11/28 00:32:55;;;;;;;12.77;10.13;;;2.80;92.20;;;;;;4954814;29;20192;-66
2022/11/28 00:35:22;;;;;;;11.02;9.18;;;2.80;92.20;;;;;;4956241;29;20190;-66
2022/11/28 00:37:49;;;;;;;12.43;9.95;;;2.80;92.20;;;;;;4954914;29;20221;-66
2022/11/28 00:40:17;;;;;;;12.43;9.02;;;2.90;92.20;;;;;;4955887;29;20220;-66
2022/11/28 00:42:44;;;;;;;13.27;9.23;;;2.90;91.90;;;;;;4953467;29;20288;-66
2022/11/28 00:45:12;;;;;;;10.13;7.75;;;2.80;92.00;;;;;;4955219;29;20617;-66
2022/11/28 00:47:39;;;;;;;10.25;8.23;;;2.80;92.00;;;;;;4954662;29;20212;-66
2022/11/28 00:50:08;;;;;;;9.05;7.50;;;2.80;91.80;;;;;;4955836;29;20200;-65
2022/11/28 00:52:35;;;;;;;9.80;8.25;;;2.80;91.70;;;;;;4955763;29;20190;-66
2022/11/28 00:55:02;;;;;;;9.18;8.25;;;2.70;91.80;;;;;;4954573;29;20265;-66
2022/11/28 00:57:29;;;;;;;9.27;7.47;;;2.70;92.00;;;;;;4955672;29;20202;-65
2022/11/28 00:59:56;;;;;;;9.73;8.07;;;2.70;91.90;;;;;;4954109;29;20209;-66
2022/11/28 01:02:24;;;;;;;9.27;8.07;;;2.80;91.70;;;;;;4955712;29;20201;-66
2022/11/28 01:04:51;;;;;;;10.52;8.15;;;2.70;91.60;;;;;;4954134;29;20221;-66
2022/11/28 01:07:18;;;;;;;9.43;7.93;;;2.70;91.50;;;;;;4955399;29;20276;-66
2022/11/28 01:09:45;;;;;;;11.57;8.73;;;2.70;91.50;;;;;;4953744;29;20204;-66
2022/11/28 01:12:12;;;;;;;11.10;9.00;;;2.70;91.50;;;;;;4954898;29;20193;-66
2022/11/28 01:14:40;;;;;;;11.10;8.35;;;2.70;91.70;;;;;;4954397;29;20704;-65
2022/11/28 01:17:07;;;;;;;9.38;7.50;;;2.70;91.60;;;;;;4954725;29;20189;-66
2022/11/28 01:19:38;;;;;;;10.93;7.93;;;2.80;91.60;;;;;;4952765;29;20200;-66
2022/11/28 01:22:05;;;;;;;8.43;7.50;;;2.80;91.60;;;;;;4935967;29;20201;-66
2022/11/28 01:24:33;;;;;;;11.05;8.70;;;2.70;91.60;;;;;;4945596;29;20193;-66
2022/11/28 01:27:00;;;;;;;10.77;8.43;;;2.60;91.60;;;;;;4955049;29;20225;-65
2022/11/28 01:29:27;;;;;;;12.85;8.60;;;2.50;91.90;;;;;;4953718;29;20196;-66
2022/11/28 01:31:56;;;;;;;12.23;8.35;;;2.50;92.00;;;;;;4954521;28;20197;-66
2022/11/28 01:34:23;;;;;;;9.75;8.55;;;2.60;92.10;;;;;;4953449;29;20204;-65
2022/11/28 01:36:51;;;;;;;12.85;7.80;;;2.60;92.50;;;;;;4954876;29;20288;-66
2022/11/28 01:39:18;;;;;;;12.55;7.75;;;2.70;92.50;;;;;;4953675;29;20189;-66
2022/11/28 01:41:45;;;;;;;16.35;7.53;;;2.70;92.50;;;;;;4955012;29;20641;-66
2022/11/28 01:44:46;;;;;;;11.30;7.55;;;2.70;92.30;;;;;;4954268;29;20186;-66
2022/11/28 01:47:14;;;;;;;11.25;8.52;;;2.80;92.20;;;;;;4954691;28;20276;-66
2022/11/28 01:49:42;;;;;;;16.08;8.60;;;2.70;92.10;;;;;;4953753;29;20229;-66
2022/11/28 01:52:15;;;;;;;11.13;8.52;;;2.60;92.20;;;;;;4954741;29;20645;-66
2022/11/28 01:54:45;;;;;;;15.70;7.90;;;2.70;92.40;;;;;;4953522;29;20194;-66
2022/11/28 01:57:17;;;;;;;12.02;7.20;;;2.60;92.30;;;;;;4953418;29;20876;-66
2022/11/28 01:59:49;;;;;;;11.43;7.82;;;2.60;92.50;;;;;;4954611;29;20229;-66
2022/11/28 02:02:22;;;;;;;12.18;7.53;;;2.50;92.70;;;;;;4953857;29;20205;-66
2022/11/28 02:04:50;;;;;;;11.75;7.25;;;2.50;93.20;;;;;;4954300;29;20245;-66
2022/11/28 02:07:19;;;;;;;9.68;8.10;;;2.50;93.20;;;;;;4953311;29;20230;-66
2022/11/28 02:09:46;;;;;;;19.00;9.60;;;2.50;93.20;;;;;;4954676;29;20194;-66
2022/11/28 02:12:32;;;;;;;14.00;8.00;;;2.60;93.20;;;;;;4954055;29;20204;-66
2022/11/28 02:15:18;;;;;;;16.90;8.80;;;2.60;93.10;;;;;;4935573;29;20194;-66
2022/11/28 02:17:58;;;;;;;11.55;8.10;;;2.60;92.90;;;;;;4938735;29;20641;-66
2022/11/28 02:21:05;;;;;;;12.52;8.63;;;2.50;92.90;;;;;;4954495;29;20198;-66
2022/11/28 02:23:56;;;;;;;9.15;7.20;;;2.60;93.10;;;;;;4952290;29;20193;-66
2022/11/28 02:27:00;;;;;;;10.13;8.00;;;2.60;93.10;;;;;;4954353;29;20217;-66
2022/11/28 02:30:02;;;;;;;8.43;7.45;;;2.60;93.10;;;;;;4938586;29;20206;-66
2022/11/28 02:32:39;;;;;;;17.50;7.55;;;2.60;93.10;;;;;;4935454;29;20198;-65
2022/11/28 02:35:11;;;;;;;10.20;7.53;;;2.60;93.00;;;;;;4952875;29;20613;-66
2022/11/28 02:37:46;;;;;;;9.52;7.78;;;2.50;93.20;;;;;;4951920;29;20696;-65
2022/11/28 02:40:21;;;;;;;8.32;6.95;;;2.40;93.40;;;;;;4954070;29;20197;-65
2022/11/28 02:43:01;;;;;;;9.60;8.45;;;2.50;93.70;;;;;;4953343;28;20743;-65
2022/11/28 02:45:35;;;;;;;10.75;8.82;;;2.50;93.70;;;;;;4958304;29;20182;-65
2022/11/28 02:48:07;;;;;;;11.57;8.90;;;2.60;93.40;;;;;;4956959;29;20177;-65
2022/11/28 02:50:42;;;;;;;8.85;7.70;;;2.60;93.20;;;;;;4957553;29;20198;-65
2022/11/28 02:53:14;;;;;;;11.05;7.45;;;2.60;93.00;;;;;;4956681;29;20268;-66
2022/11/28 02:55:43;;;;;;;12.02;8.20;;;2.60;93.20;;;;;;4957740;29;20198;-66
2022/11/28 02:58:11;;;;;;;10.68;7.90;;;2.60;93.00;;;;;;4956477;29;20201;-66
2022/11/28 03:00:42;;;;;;;10.43;7.57;;;2.70;93.00;;;;;;4957850;29;20245;-66
2022/11/28 03:03:46;;;;;;;9.13;7.43;;;2.70;92.80;;;;;;4956342;29;20201;-66
2022/11/28 03:06:21;;;;;;;9.60;7.80;;;2.60;92.30;;;;;;4957310;29;20213;-65
2022/11/28 03:09:06;;;;;;;10.00;7.25;;;2.30;92.80;;;;;;4956298;29;20314;-65
2022/11/28 03:11:46;;;;;;;9.20;7.75;;;2.20;93.70;;;;;;4957418;29;20252;-65
2022/11/28 03:14:25;;;;;;;10.30;7.13;;;2.20;94.10;;;;;;4956214;29;20190;-65
2022/11/28 03:17:10;;;;;;;9.10;6.95;;;2.30;94.50;;;;;;4955697;29;20182;-65
2022/11/28 03:19:42;;;;;;;8.20;7.35;;;2.30;94.20;;;;;;4957562;29;20198;-65
2022/11/28 03:22:17;;;;;;;9.40;7.10;;;2.40;94.10;;;;;;4955963;29;20249;-65
2022/11/28 03:24:49;;;;;;;10.90;8.05;;;2.40;93.70;;;;;;4957204;29;20194;-65
2022/11/28 03:27:23;;;;;;;8.70;7.80;;;2.50;93.60;;;;;;4955993;29;20217;-65
2022/11/28 03:29:53;;;;;;;8.68;7.38;;;2.40;93.60;;;;;;4957215;29;20193;-65
2022/11/28 03:32:24;;;;;;;9.18;7.30;;;2.50;93.80;;;;;;4955633;29;20237;-65
2022/11/28 03:34:58;;;;;;;11.07;7.70;;;2.60;94.00;;;;;;4957128;29;20194;-65
2022/11/28 03:37:30;;;;;;;8.18;6.20;;;2.70;94.00;;;;;;4955555;29;20224;-65
2022/11/28 03:40:02;;;;;;;9.25;5.40;;;2.80;93.90;;;;;;4956028;29;20190;-65
2022/11/28 03:42:32;;;;;;;9.40;7.20;;;2.80;93.60;;;;;;4937949;29;20648;-65
2022/11/28 03:45:06;;;;;;;9.07;7.00;;;2.80;93.40;;;;;;4937922;29;20198;-65
2022/11/28 03:47:38;;;;;;;6.30;5.70;;;2.80;92.90;;;;;;4942572;29;20699;-65
2022/11/28 03:50:13;;;;;;;7.35;6.13;;;2.80;92.80;;;;;;4955720;29;20675;-66
2022/11/28 03:52:43;;;;;;;8.73;7.28;;;2.70;93.10;;;;;;4956581;29;20229;-66
2022/11/28 03:55:14;;;;;;;8.23;7.10;;;2.50;93.90;;;;;;4955414;28;20193;-66
2022/11/28 03:57:48;;;;;;;7.95;6.75;;;2.30;94.30;;;;;;4956822;29;20660;-65
2022/11/28 04:00:16;;;;;;;9.23;6.90;;;2.20;95.10;;;;;;4955956;29;20225;-66
2022/11/28 04:02:54;;;;;;;7.85;6.60;;;2.20;95.30;;;;;;4956479;29;20253;-65
2022/11/28 04:05:29;;;;;;;6.78;6.05;;;2.20;95.30;;;;;;4955822;29;20330;-65
2022/11/28 04:08:01;;;;;;;7.30;6.15;;;2.20;95.60;;;;;;4937490;29;20230;-65
2022/11/28 04:10:33;;;;;;;8.80;6.93;;;2.30;95.70;;;;;;4938235;29;20262;-66
2022/11/28 04:13:03;;;;;;;7.38;6.32;;;2.50;95.70;;;;;;4956659;29;20616;-65
2022/11/28 04:15:38;;;;;;;8.45;6.68;;;2.60;95.40;;;;;;4955347;29;20229;-65
2022/11/28 04:18:17;;;;;;;7.00;5.75;;;2.70;95.30;;;;;;4956325;29;20215;-65
2022/11/28 04:20:52;;;;;;;7.78;6.80;;;2.80;95.20;;;;;;4955596;29;20292;-65
2022/11/28 04:23:21;;;;;;;8.82;7.32;;;2.80;94.20;;;;;;4956466;29;20288;-65
2022/11/28 04:25:53;;;;;;;9.20;7.07;;;2.80;94.30;;;;;;4955324;29;20552;-66
2022/11/28 04:28:24;;;;;;;11.75;6.30;;;2.90;94.50;;;;;;4956028;29;20601;-65
2022/11/28 04:30:54;;;;;;;6.70;5.80;;;2.90;93.80;;;;;;4954647;29;20194;-65
2022/11/28 04:33:24;;;;;;;8.60;7.47;;;2.90;94.10;;;;;;4956250;29;20193;-65
2022/11/28 04:35:55;;;;;;;10.82;7.72;;;3.00;94.10;;;;;;4954924;29;20249;-65
2022/11/28 04:38:26;;;;;;;9.48;7.40;;;3.10;94.00;;;;;;4955558;29;20198;-64
2022/11/28 04:40:59;;;;;;;7.22;6.50;;;3.00;93.90;;;;;;4954900;29;20229;-65
2022/11/28 04:43:30;;;;;;;9.18;7.40;;;3.10;93.80;;;;;;4955706;29;20194;-65
2022/11/28 04:46:01;;;;;;;9.48;6.70;;;3.20;93.60;;;;;;4954905;29;20221;-65
2022/11/28 04:48:28;;;;;;;8.25;6.03;;;3.20;93.50;;;;;;4955838;29;20755;-65
2022/11/28 04:51:08;;;;;;;8.02;6.90;;;3.20;93.30;;;;;;4954062;29;20237;-65
2022/11/28 04:53:42;;;;;;;8.48;7.68;;;3.20;93.20;;;;;;4955359;29;20198;-65
2022/11/28 04:56:16;;;;;;;7.60;6.00;;;3.30;93.10;;;;;;4955690;29;20733;-65
2022/11/28 04:58:46;;;;;;;8.30;6.82;;;3.30;93.20;;;;;;4954636;29;20608;-65
2022/11/28 05:01:18;;;;;;;8.10;6.20;;;3.30;93.20;;;;;;4955749;29;20197;-65
2022/11/28 05:03:46;;;;;;;6.60;5.90;;;3.30;93.40;;;;;;4954745;29;20696;-65
2022/11/28 05:06:26;;;;;;;6.35;5.70;;;3.30;93.30;;;;;;4955199;28;20193;-65
2022/11/28 05:08:55;;;;;;;7.18;6.45;;;3.30;93.30;;;;;;4955100;29;20194;-65
2022/11/28 05:11:23;;;;;;;7.00;6.18;;;3.30;93.50;;;;;;4955816;29;20318;-65
2022/11/28 05:13:52;;;;;;;6.68;5.60;;;3.30;93.70;;;;;;4954849;29;20197;-65
2022/11/28 05:16:19;;;;;;;6.88;5.90;;;3.30;93.60;;;;;;4953809;29;20285;-65
2022/11/28 05:18:46;;;;;;;7.35;6.43;;;3.30;93.70;;;;;;4954081;29;20185;-65
2022/11/28 05:21:13;;;;;;;7.97;5.80;;;3.30;93.60;;;;;;4954215;29;20198;-65
2022/11/28 05:23:43;;;;;;;8.75;7.45;;;3.30;93.40;;;;;;4955616;29;20253;-65
2022/11/28 05:26:16;;;;;;;8.05;6.00;;;3.40;93.60;;;;;;4953343;29;20284;-66
2022/11/28 05:28:44;;;;;;;9.15;7.43;;;3.40;93.30;;;;;;4955363;29;20249;-66
2022/11/28 05:31:13;;;;;;;8.90;7.40;;;3.40;93.30;;;;;;4953889;29;20197;-66
2022/11/28 05:33:40;;;;;;;9.70;7.40;;;3.30;93.50;;;;;;4955039;29;20645;-66
2022/11/28 05:36:13;;;;;;;8.90;7.43;;;3.20;93.70;;;;;;4954329;29;20225;-66
2022/11/28 05:38:42;;;;;;;8.48;6.97;;;3.10;93.60;;;;;;4955232;29;20194;-66
2022/11/28 05:41:10;;;;;;;9.10;7.38;;;3.10;93.60;;;;;;4954404;29;20208;-66
2022/11/28 05:43:37;;;;;;;9.02;7.53;;;3.10;93.70;;;;;;4935181;29;20262;-66
2022/11/28 05:46:05;;;;;;;12.93;7.45;;;3.20;93.50;;;;;;4935994;29;20301;-66
2022/11/28 05:48:32;;;;;;;9.77;7.40;;;3.20;93.60;;;;;;4953477;29;20244;-66
2022/11/28 05:50:59;;;;;;;11.15;8.48;;;3.20;93.50;;;;;;4953806;29;20211;-66
2022/11/28 05:53:26;;;;;;;9.82;7.97;;;3.20;93.60;;;;;;4955290;29;20193;-66
2022/11/28 05:55:54;;;;;;;12.90;9.25;;;3.20;93.50;;;;;;4953517;29;20622;-66
2022/11/28 05:58:21;;;;;;;13.25;9.48;;;3.20;93.70;;;;;;4954970;29;20245;-66
2022/11/28 06:00:48;;;;;;;9.70;8.50;;;3.20;93.70;;;;;;4953651;29;20579;-66
2022/11/28 06:03:16;;;;;;;11.38;9.57;;;3.20;93.90;;;;;;4954681;28;20197;-65
2022/11/28 06:05:44;;;;;;;11.52;9.15;;;3.20;94.10;;;;;;4952535;29;20213;-66
2022/11/28 06:08:12;;;;;;;11.43;8.02;;;3.20;94.20;;;;;;4953794;29;20281;-66
2022/11/28 06:10:40;;;;;;;13.70;9.95;;;3.10;94.30;;;;;;4951251;29;20201;-66
2022/11/28 06:13:09;;;;;;;14.63;10.60;;;3.10;94.40;;;;;;4948277;29;20197;-66
2022/11/28 06:15:36;;;;;;;17.50;12.10;;;3.20;94.50;;;;;;4949637;29;20292;-66
2022/11/28 06:18:03;;;;;;;9.65;7.65;;;3.10;94.20;;;;;;4953289;28;20613;-65
2022/11/28 06:20:31;;;;;;;9.75;7.18;;;3.10;94.30;;;;;;4957921;29;20201;-65
2022/11/28 06:22:58;;;;;;;8.13;6.15;;;2.90;94.90;;;;;;4957995;29;20281;-70
2022/11/28 06:25:25;;;;;;;9.38;8.00;;;2.80;95.30;;;;;;4958284;29;20666;-65
2022/11/28 06:27:52;;;;;;;8.80;7.18;;;2.80;95.50;;;;;;4957858;29;20214;-65
2022/11/28 06:30:21;;;;;;;11.10;7.90;;;2.70;95.80;;;;;;4957818;29;20204;-65
2022/11/28 06:32:48;;;;;;;10.57;7.55;;;2.70;96.00;;;;;;4958279;29;20217;-65
2022/11/28 06:35:16;;;;;;;9.45;6.47;;;2.80;95.80;;;;;;4957969;29;20221;-66
2022/11/28 06:37:43;;;;;;;65.80;33.67;;;2.80;95.70;;;;;;4957769;29;20194;-65
2022/11/28 06:40:12;;;;;;;55.30;34.17;;;2.90;95.70;;;;;;4954260;28;20209;-65
2022/11/28 06:42:42;;;;;;;25.17;16.10;;;2.90;95.70;;;;;;4956238;29;20225;-65
2022/11/28 06:45:10;;;;;;;15.73;9.50;;;3.00;95.70;;;;;;4956120;29;20605;-65
2022/11/28 06:47:38;;;;;;;10.27;6.70;;;3.10;95.70;;;;;;4952698;28;20249;-65
2022/11/28 06:50:15;;;;;;;10.88;7.10;;;3.20;95.50;;;;;;4949859;29;20319;-65
2022/11/28 06:52:43;;;;;;;9.50;7.60;;;3.40;95.50;;;;;;4939814;28;20197;-66
2022/11/28 06:55:10;;;;;;;9.23;6.95;;;3.40;95.20;;;;;;4951915;28;20274;-66
2022/11/28 06:57:38;;;;;;;8.82;6.68;;;3.50;95.00;;;;;;4952485;29;20190;-66
2022/11/28 07:00:07;;;;;;;6.40;5.65;;;3.60;94.80;;;;;;4951676;29;20284;-66
2022/11/28 07:02:35;;;;;;;8.60;6.65;;;3.70;94.60;;;;;;4954700;28;20249;-66
2022/11/28 07:05:06;;;;;;;8.63;6.72;;;3.70;94.40;;;;;;4952127;28;20308;-66
2022/11/28 07:07:33;;;;;;;9.90;6.72;;;3.70;94.10;;;;;;4950977;29;20217;-66
2022/11/28 07:10:00;;;;;;;10.57;7.15;;;3.70;93.90;;;;;;4951410;28;20285;-66
2022/11/28 07:12:28;;;;;;;10.88;8.48;;;3.80;93.70;;;;;;4952389;29;20186;-66
2022/11/28 07:14:55;;;;;;;12.75;8.15;;;3.80;93.70;;;;;;4955201;28;20233;-65
2022/11/28 07:17:22;;;;;;;10.00;7.10;;;3.80;93.70;;;;;;4956459;28;20225;-66
2022/11/28 07:19:49;;;;;;;9.02;6.18;;;3.90;93.90;;;;;;4951794;28;20197;-66
2022/11/28 07:22:17;;;;;;;7.60;6.30;;;3.90;93.90;;;;;;4953224;29;20276;-66
2022/11/28 07:24:45;;;;;;;7.63;6.53;;;3.90;93.70;;;;;;4953026;28;20581;-66
2022/11/28 07:27:12;;;;;;;9.05;6.85;;;4.00;93.70;;;;;;4954050;28;21128;-66
2022/11/28 07:29:39;;;;;;;7.18;6.13;;;4.00;93.50;;;;;;4955887;28;20202;-66
2022/11/28 07:32:07;;;;;;;8.25;6.68;;;4.00;93.60;;;;;;4955358;28;20249;-66
2022/11/28 07:34:34;;;;;;;8.88;6.28;;;3.90;93.40;;;;;;4954714;28;20201;-66
2022/11/28 07:37:01;;;;;;;8.82;6.65;;;3.90;93.40;;;;;;4955584;28;20209;-67
2022/11/28 07:39:29;;;;;;;8.25;6.60;;;3.90;93.50;;;;;;4954977;28;20285;-66
2022/11/28 07:41:57;;;;;;;9.18;7.07;;;3.90;93.50;;;;;;4952618;28;20201;-66
2022/11/28 07:44:24;;;;;;;9.80;6.25;;;3.70;93.80;;;;;;4952726;28;20217;-66
2022/11/28 07:46:51;;;;;;;10.18;7.18;;;3.50;94.40;;;;;;4953954;29;20280;-66
2022/11/28 07:49:18;;;;;;;12.65;6.90;;;3.50;94.70;;;;;;4954455;29;20261;-66
2022/11/28 07:51:46;;;;;;;12.75;8.43;;;3.60;94.90;;;;;;4954665;29;20194;-66
2022/11/28 07:54:13;;;;;;;10.35;8.82;;;3.70;95.00;;;;;;4953317;29;20186;-66
2022/11/28 07:56:41;;;;;;;12.20;9.93;;;3.80;95.00;;;;;;4953895;29;20194;-66
2022/11/28 07:59:09;;;;;;;12.65;8.25;;;3.90;94.90;;;;;;4956474;29;20684;-66
2022/11/28 08:01:39;;;;;;;10.18;8.10;;;4.00;94.60;;;;;;4955694;29;20221;-66
2022/11/28 08:04:08;;;;;;;13.18;7.88;;;4.10;94.50;;;;;;4954981;29;20232;-66
2022/11/28 08:06:38;;;;;;;10.43;7.88;;;4.20;94.20;;;;;;4956050;29;20241;-66
2022/11/28 08:09:06;;;;;;;10.45;7.85;;;4.30;94.10;;;;;;4956461;29;20236;-66
2022/11/28 08:11:34;;;;;;;14.88;11.90;;;4.30;93.90;;;;;;4956240;29;20276;-66
2022/11/28 08:14:02;;;;;;;12.25;8.68;;;4.30;93.60;;;;;;4955319;29;20221;-66
2022/11/28 08:16:31;;;;;;;10.20;8.32;;;4.20;93.30;;;;;;4956473;29;20185;-66
2022/11/28 08:19:02;;;;;;;10.32;6.88;;;4.20;93.50;;;;;;4956146;28;20190;-66
2022/11/28 08:21:31;;;;;;;8.68;7.55;;;4.40;94.60;;;;;;4956138;29;20667;-66
2022/11/28 08:23:59;;;;;;;13.80;7.55;;;4.50;94.10;;;;;;4956170;29;20223;-66
2022/11/28 08:26:28;;;;;;;13.90;10.00;;;4.60;93.60;;;;;;4956306;29;20248;-66
2022/11/28 08:28:55;;;;;;;33.75;22.58;;;4.60;93.00;;;;;;4956057;29;20252;-67
2022/11/28 08:31:26;;;;;;;14.18;10.70;;;4.70;92.60;;;;;;4955798;29;20233;-66
2022/11/28 08:33:55;;;;;;;11.80;7.57;;;4.70;92.80;;;;;;4955896;29;20194;-66
2022/11/28 08:36:24;;;;;;;9.82;8.10;;;4.80;92.80;;;;;;4955894;29;20225;-66
2022/11/28 08:38:53;;;;;;;9.30;7.10;;;4.90;92.60;;;;;;4955753;29;20228;-66
2022/11/28 08:41:25;;;;;;;10.20;8.05;;;4.90;92.30;;;;;;4954941;28;20189;-66
2022/11/28 08:43:52;;;;;;;13.85;8.80;;;4.90;91.40;;;;;;4955870;29;20241;-66
2022/11/28 08:46:21;;;;;;;10.98;7.32;;;4.90;91.30;;;;;;4955683;29;20193;-66
2022/11/28 08:48:51;;;;;;;8.25;6.20;;;4.80;91.40;;;;;;4955647;29;20691;-66
2022/11/28 08:51:22;;;;;;;7.30;5.82;;;4.80;91.40;;;;;;4955557;29;20218;-66
2022/11/28 08:53:50;;;;;;;9.20;6.93;;;4.80;91.40;;;;;;4956134;29;20598;-66
2022/11/28 08:56:17;;;;;;;8.88;6.82;;;4.90;91.40;;;;;;4955396;29;20260;-66
2022/11/28 08:58:44;;;;;;;7.30;5.88;;;4.90;91.50;;;;;;4955254;29;20225;-66
2022/11/28 09:01:16;;;;;;;12.70;7.53;;;4.90;91.60;;;;;;4955403;29;20197;-66
2022/11/28 09:03:43;;;;;;;11.43;8.50;;;5.00;91.60;;;;;;4954978;29;20225;-66
2022/11/28 09:06:12;;;;;;;11.05;8.25;;;5.00;91.50;;;;;;4955229;29;20178;-66
2022/11/28 09:08:40;;;;;;;9.07;6.60;;;5.00;91.60;;;;;;4955295;29;20284;-66
2022/11/28 09:11:08;;;;;;;9.68;7.68;;;5.10;91.20;;;;;;4955249;29;20197;-66
2022/11/28 09:13:36;;;;;;;9.98;7.45;;;5.00;91.20;;;;;;4955153;29;20197;-66
2022/11/28 09:16:04;;;;;;;12.05;10.63;;;5.00;91.40;;;;;;4955120;29;20217;-66
2022/11/28 09:18:31;;;;;;;14.95;12.68;;;5.00;91.00;;;;;;4955299;29;20252;-66
2022/11/28 09:20:59;;;;;;;8.93;7.88;;;5.00;91.20;;;;;;4955209;29;20189;-66
2022/11/28 09:23:28;;;;;;;10.40;7.93;;;5.00;91.00;;;;;;4955061;29;20232;-66
2022/11/28 09:25:56;;;;;;;10.40;8.10;;;5.00;91.10;;;;;;4954962;29;20201;-66
2022/11/28 09:28:27;;;;;;;15.93;9.77;;;5.00;91.30;;;;;;4954795;29;20222;-66
2022/11/28 09:31:00;;;;;;;19.58;11.43;;;5.10;91.70;;;;;;4954927;29;20538;-66
2022/11/28 09:33:27;;;;;;;17.42;12.40;;;5.10;92.30;;;;;;4955025;29;20194;-66
2022/11/28 09:35:54;;;;;;;14.65;12.25;;;5.20;92.10;;;;;;4954817;29;20322;-66
2022/11/28 09:38:23;;;;;;;12.45;8.50;;;5.20;92.50;;;;;;4951884;28;20261;-66
2022/11/28 09:40:52;;;;;;;11.98;7.78;;;5.20;92.20;;;;;;4962226;28;20193;-66
2022/11/28 09:43:30;;;;;;;10.40;8.20;;;5.20;92.30;;;;;;4972486;28;20197;-66
2022/11/28 09:46:00;;;;;;;12.40;9.63;;;5.20;92.60;;;;;;4972320;28;20196;-66
2022/11/28 09:48:31;;;;;;;12.05;8.38;;;5.30;92.70;;;;;;4972485;28;20217;-66
2022/11/28 09:51:03;;;;;;;11.52;8.98;;;5.50;92.70;;;;;;4972889;28;20247;-67
2022/11/28 09:53:37;;;;;;;11.75;9.02;;;5.50;91.90;;;;;;4972604;28;20200;-66
2022/11/28 09:56:12;;;;;;;13.25;9.13;;;5.60;92.00;;;;;;4972642;28;20610;-66
2022/11/28 09:58:45;;;;;;;16.27;11.38;;;5.70;92.00;;;;;;4972407;28;20205;-66
2022/11/28 10:01:18;;;;;;;8.95;7.65;;;5.80;91.30;;;;;;4972405;28;20232;-66
2022/11/28 10:03:55;;;;;;;9.73;6.95;;;5.80;91.00;;;;;;4971905;28;20233;-66
2022/11/28 10:06:27;;;;;;;11.25;7.88;;;5.80;91.40;;;;;;4971998;28;20196;-66
2022/11/28 10:09:16;;;;;;;8.63;7.15;;;5.90;91.40;;;;;;4972096;28;20719;-66
2022/11/28 10:11:59;;;;;;;10.57;8.25;;;6.00;91.70;;;;;;4971135;28;20203;-66
2022/11/28 10:15:01;;;;;;;8.85;6.63;;;6.10;91.60;;;;;;4972195;28;20652;-66
2022/11/28 10:17:37;;;;;;;12.45;7.90;;;6.20;91.80;;;;;;4972237;28;20204;-66
2022/11/28 10:20:12;;;;;;;8.15;6.70;;;6.40;91.90;;;;;;4971466;28;20239;-66
2022/11/28 10:22:44;;;;;;;7.20;5.82;;;6.50;91.10;;;;;;4971777;28;20204;-66
2022/11/28 10:25:17;;;;;;;12.60;7.82;;;6.60;91.00;;;;;;4972124;28;20596;-66
2022/11/28 10:27:48;;;;;;;9.63;7.50;;;6.60;90.60;;;;;;4972542;28;20559;-66
2022/11/28 10:30:24;;;;;;;8.38;6.97;;;6.60;90.80;;;;;;4972892;28;20531;-66
2022/11/28 10:33:02;;;;;;;8.38;6.82;;;6.80;91.20;;;;;;4971799;28;20614;-66
2022/11/28 10:35:39;;;;;;;8.13;6.95;;;6.90;90.80;;;;;;4971979;28;20197;-66
2022/11/28 10:38:12;;;;;;;13.32;6.53;;;7.10;90.70;;;;;;4971777;28;20222;-66
2022/11/28 10:40:46;;;;;;;10.30;7.28;;;7.20;90.00;;;;;;4971751;28;20702;-66
2022/11/28 10:43:27;;;;;;;7.93;6.43;;;7.30;90.10;;;;;;4971664;28;20287;-66
2022/11/28 10:46:05;;;;;;;7.32;5.68;;;7.40;89.20;;;;;;4971597;28;20731;-66
2022/11/28 10:48:42;;;;;;;8.93;7.63;;;7.50;89.30;;;;;;4971709;28;20583;-66
2022/11/28 10:51:19;;;;;;;10.20;7.63;;;7.60;87.60;;;;;;4971461;28;20266;-66
2022/11/28 10:53:58;;;;;;;10.32;7.75;;;7.50;88.00;;;;;;4971883;28;20652;-66
2022/11/28 10:56:39;;;;;;;11.65;8.13;;;7.60;88.50;;;;;;4970467;28;20207;-66
2022/11/28 10:59:17;;;;;;;9.02;7.40;;;7.70;89.80;;;;;;4971782;28;20197;-65
2022/11/28 11:01:44;;;;;;;11.98;7.18;;;7.80;89.70;;;;;;4972963;28;20201;-66
2022/11/28 11:04:17;;;;;;;11.30;5.90;;;8.00;88.60;;;;;;4974781;28;20556;-66
2022/11/28 11:06:57;;;;;;;11.02;7.43;;;8.10;87.60;;;;;;4976613;28;20220;-66
2022/11/28 11:09:24;;;;;;;28.58;21.38;;;8.20;88.00;;;;;;4965467;28;20213;-66
2022/11/28 11:11:59;;;;;;;11.15;9.93;;;8.20;87.10;;;;;;4968655;28;20201;-66
2022/11/28 11:14:38;;;;;;;11.07;7.75;;;8.30;86.20;;;;;;4975293;28;20228;-66
2022/11/28 11:17:06;;;;;;;9.85;6.95;;;8.40;86.70;;;;;;4975636;28;20196;-66
2022/11/28 11:19:36;;;;;;;8.75;6.45;;;8.50;86.40;;;;;;4975623;28;20201;-66
2022/11/28 11:22:14;;;;;;;9.18;6.85;;;8.60;86.60;;;;;;4975321;28;20193;-66
2022/11/28 11:24:42;;;;;;;11.27;5.97;;;8.60;86.20;;;;;;4974659;28;20188;-67
2022/11/28 11:27:19;;;;;;;7.10;6.13;;;8.70;85.80;;;;;;4974912;28;20216;-66
2022/11/28 11:29:48;;;;;;;8.18;6.05;;;8.80;85.70;;;;;;4974896;28;20221;-67
2022/11/28 11:32:21;;;;;;;7.20;5.70;;;8.80;85.40;;;;;;4974318;28;20200;-66
2022/11/28 11:34:50;;;;;;;6.82;6.22;;;8.90;85.30;;;;;;4974738;28;20711;-66
2022/11/28 11:37:32;;;;;;;7.40;6.15;;;8.90;85.00;;;;;;4973048;28;20197;-66
2022/11/28 11:40:01;;;;;;;8.63;6.93;;;8.90;85.20;;;;;;4975415;28;20592;-66
2022/11/28 11:42:30;;;;;;;7.63;6.20;;;8.90;84.60;;;;;;4974790;28;20193;-67
2022/11/28 11:45:32;;;;;;;10.55;6.72;;;8.90;84.30;;;;;;4974584;28;20296;-66
2022/11/28 11:48:05;;;;;;;8.60;6.00;;;8.90;84.30;;;;;;4974157;28;20193;-66
2022/11/28 11:50:33;;;;;;;12.95;9.48;;;8.90;84.00;;;;;;4974435;28;20275;-66
2022/11/28 11:53:13;;;;;;;8.65;7.03;;;8.90;83.60;;;;;;4974518;28;20204;-67
2022/11/28 11:55:48;;;;;;;9.45;7.40;;;8.90;83.40;;;;;;4974628;28;20220;-66
2022/11/28 11:58:20;;;;;;;9.82;7.18;;;8.80;84.00;;;;;;4973896;28;20197;-66
2022/11/28 12:00:52;;;;;;;9.60;7.05;;;8.80;84.10;;;;;;4974223;28;20224;-66
2022/11/28 12:03:33;;;;;;;9.15;7.18;;;8.80;84.10;;;;;;4974050;28;20198;-66
2022/11/28 12:06:04;;;;;;;8.77;6.15;;;8.80;84.30;;;;;;4974580;28;20232;-66
2022/11/28 12:08:35;;;;;;;9.80;6.78;;;8.80;84.70;;;;;;4974085;28;20240;-66
2022/11/28 12:11:12;;;;;;;10.23;6.82;;;8.80;85.10;;;;;;4958608;28;20190;-66
2022/11/28 12:13:41;;;;;;;8.60;6.90;;;8.80;85.40;;;;;;4968575;28;20750;-66
2022/11/28 12:16:29;;;;;;;9.38;7.35;;;8.80;85.70;;;;;;4962468;28;20190;-65
2022/11/28 12:19:13;;;;;;;10.38;7.30;;;8.80;85.90;;;;;;4957865;28;20189;-66
2022/11/28 12:21:53;;;;;;;9.52;6.70;;;8.90;86.10;;;;;;4973902;28;20204;-66
2022/11/28 12:24:23;;;;;;;7.88;6.22;;;8.90;86.00;;;;;;4973781;28;20662;-66
2022/11/28 12:27:06;;;;;;;9.73;6.63;;;8.90;86.00;;;;;;4974514;28;20283;-66
2022/11/28 12:29:50;;;;;;;9.82;7.63;;;8.90;86.30;;;;;;4964329;28;20610;-66
2022/11/28 12:32:32;;;;;;;10.52;6.75;;;8.90;86.20;;;;;;4956213;29;20193;-66
2022/11/28 12:35:16;;;;;;;7.35;6.43;;;8.80;85.80;;;;;;4956145;29;20197;-66
2022/11/28 12:37:53;;;;;;;13.45;7.72;;;8.80;86.00;;;;;;4956333;29;20244;-66
2022/11/28 12:40:31;;;;;;;10.25;8.30;;;8.80;86.30;;;;;;4955886;29;20198;-66
2022/11/28 12:43:14;;;;;;;9.35;7.15;;;8.80;86.40;;;;;;4955981;29;20182;-66
2022/11/28 12:45:48;;;;;;;8.90;7.65;;;8.80;86.60;;;;;;4955203;29;20229;-66
2022/11/28 12:48:30;;;;;;;8.93;6.80;;;8.80;86.40;;;;;;4955759;29;20197;-66
2022/11/28 12:51:03;;;;;;;8.43;6.72;;;8.80;86.20;;;;;;4955760;29;20227;-66
2022/11/28 12:53:48;;;;;;;9.60;6.97;;;8.80;86.40;;;;;;4955164;29;20230;-66
2022/11/28 12:56:40;;;;;;;9.90;6.03;;;8.80;86.70;;;;;;4955521;29;20274;-66
2022/11/28 12:59:20;;;;;;;9.10;6.40;;;8.80;86.40;;;;;;4955386;29;20205;-66
2022/11/28 13:01:59;;;;;;;11.02;5.97;;;8.90;86.40;;;;;;4955570;29;20556;-66
2022/11/28 13:04:54;;;;;;;9.70;6.82;;;8.90;86.40;;;;;;4955393;29;20225;-66
2022/11/28 13:07:33;;;;;;;11.18;7.25;;;8.90;86.40;;;;;;4939015;29;20244;-66
2022/11/28 13:10:09;;;;;;;11.18;5.43;;;8.90;86.40;;;;;;4955216;29;20237;-66
2022/11/28 13:12:50;;;;;;;10.15;6.25;;;8.90;86.20;;;;;;4955497;29;20225;-66
2022/11/28 13:15:31;;;;;;;11.07;5.82;;;8.90;86.40;;;;;;4955373;29;20197;-66